Palacios, Texas
Current Conditions -  °F | °C
As of 7:53 AM on Wednesday 26 Nov 2014 (Local Time) from KPSX Reporting Station
Clear Clear  
Wind Chill: 53°   Ceiling: Unl
Heat Index: 53°   Visibility: 10mi
Dew Point: 46°   Wind: 7mph
Humidity: 77%   Direction: 250°WSW
Pressure: 30.26"   Gusts: NA
Location:  28.71°N, 96.22°W
Report Text: KPSX 261353Z AUTO 25006KT 10SM CLR 12/08 A3026 RMK AO2 SLP246 T01170078
Loading
Personal Weather Stations






























Interactive Weather Map New forecast layout! Learn more

10-Day Weather Forecast

Advertisements
Track Severe Weather on mobile